createdAt,value
2023-04-15T00:00:03.091Z,4.57
2023-04-15T00:01:02.919Z,4.52
2023-04-15T00:02:03.152Z,4.46
2023-04-15T00:03:03.059Z,4.38
2023-04-15T00:04:03.242Z,4.34
2023-04-15T00:05:03.317Z,4.28
2023-04-15T00:06:03.304Z,4.29
2023-04-15T00:07:02.340Z,4.26
2023-04-15T00:08:02.350Z,4.23
2023-04-15T00:09:02.313Z,4.26
2023-04-15T00:10:02.567Z,4.27
2023-04-15T00:11:01.936Z,4.27
2023-04-15T00:12:02.771Z,4.26
2023-04-15T00:13:03.061Z,4.28
2023-04-15T00:14:02.767Z,4.27
2023-04-15T00:15:02.550Z,4.22
2023-04-15T00:16:02.785Z,4.14
2023-04-15T00:17:03.074Z,4.14
2023-04-15T00:18:02.845Z,4.05
2023-04-15T00:19:02.869Z,4.05
2023-04-15T00:20:02.921Z,4.07
2023-04-15T00:21:03.021Z,3.97
2023-04-15T00:22:02.349Z,3.91
2023-04-15T00:23:02.423Z,3.94
2023-04-15T00:24:02.245Z,3.95
2023-04-15T00:25:01.836Z,3.95
2023-04-15T00:26:01.981Z,3.98
2023-04-15T00:27:02.868Z,4.00
2023-04-15T00:28:02.601Z,3.98
2023-04-15T00:29:02.599Z,4.03
2023-04-15T00:30:02.495Z,4.06
2023-04-15T00:31:03.018Z,4.09
2023-04-15T00:32:02.850Z,4.07
2023-04-15T00:33:02.987Z,4.03
2023-04-15T00:34:03.040Z,4.04
2023-04-15T00:35:02.975Z,3.99
2023-04-15T00:36:02.993Z,4.01
2023-04-15T00:37:02.949Z,4.01
2023-04-15T00:38:02.986Z,4.06
2023-04-15T00:39:02.793Z,4.06
2023-04-15T00:40:02.853Z,4.10
2023-04-15T00:41:02.916Z,4.10
2023-04-15T00:42:02.313Z,4.13
2023-04-15T00:43:01.979Z,4.14
2023-04-15T00:44:02.100Z,4.16
2023-04-15T00:45:01.778Z,4.14
2023-04-15T00:46:02.315Z,4.15
2023-04-15T00:47:02.123Z,4.15
2023-04-15T00:48:02.232Z,4.18
2023-04-15T00:49:02.479Z,4.17
2023-04-15T00:50:01.967Z,4.17
2023-04-15T00:51:02.131Z,4.14
2023-04-15T00:52:02.043Z,4.16
2023-04-15T00:53:02.012Z,4.14
2023-04-15T00:54:02.098Z,4.18
2023-04-15T00:55:02.332Z,4.15
2023-04-15T00:56:02.169Z,4.14
2023-04-15T00:57:02.483Z,4.16
2023-04-15T00:58:02.390Z,4.18
2023-04-15T00:59:02.410Z,4.19
2023-04-15T01:00:02.645Z,4.14
2023-04-15T01:01:01.928Z,4.15
2023-04-15T01:02:03.097Z,4.07
2023-04-15T01:03:02.611Z,4.02
2023-04-15T01:04:02.610Z,4.00
2023-04-15T01:05:02.635Z,4.00
2023-04-15T01:06:04.014Z,3.96
2023-04-15T01:07:03.071Z,3.87
2023-04-15T01:08:03.318Z,3.80
2023-04-15T01:09:03.344Z,3.80
2023-04-15T01:10:03.279Z,3.80
2023-04-15T01:11:03.323Z,3.82
2023-04-15T01:12:03.293Z,3.84
2023-04-15T01:13:02.706Z,3.84
2023-04-15T01:14:03.112Z,3.84
2023-04-15T01:15:02.926Z,3.87
2023-04-15T01:16:03.286Z,3.93
2023-04-15T01:17:03.219Z,3.96
2023-04-15T01:18:03.407Z,3.97
2023-04-15T01:19:03.352Z,3.99
2023-04-15T01:20:03.206Z,3.95
2023-04-15T01:21:03.628Z,3.97
2023-04-15T01:22:02.871Z,3.95
2023-04-15T01:23:02.994Z,3.94
2023-04-15T01:24:03.138Z,3.85
2023-04-15T01:25:02.921Z,3.87
2023-04-15T01:26:03.135Z,3.80
2023-04-15T01:27:03.292Z,3.82
2023-04-15T01:28:03.615Z,3.78
2023-04-15T01:29:03.432Z,3.68
2023-04-15T01:30:03.284Z,3.63
2023-04-15T01:31:03.462Z,3.58
2023-04-15T01:32:02.827Z,3.51
2023-04-15T01:33:03.196Z,3.53
2023-04-15T01:34:02.821Z,3.51
2023-04-15T01:35:03.091Z,3.42
2023-04-15T01:36:03.216Z,3.40
2023-04-15T01:37:02.797Z,3.35
2023-04-15T01:38:03.010Z,3.29
2023-04-15T01:39:02.548Z,3.26
2023-04-15T01:40:02.813Z,3.21
2023-04-15T01:41:02.426Z,3.16
2023-04-15T01:42:02.775Z,3.11
2023-04-15T01:43:02.657Z,3.14
2023-04-15T01:44:03.243Z,3.09
2023-04-15T01:45:03.307Z,3.12
2023-04-15T01:46:02.948Z,3.08
2023-04-15T01:47:03.579Z,3.07
2023-04-15T01:48:03.586Z,3.12
2023-04-15T01:49:03.623Z,3.08
2023-04-15T01:50:03.158Z,3.07
2023-04-15T01:51:03.085Z,3.06
2023-04-15T01:52:02.901Z,3.06
2023-04-15T01:53:02.591Z,3.02
2023-04-15T01:54:02.681Z,3.05
2023-04-15T01:55:02.976Z,3.06
2023-04-15T01:56:02.675Z,3.06
2023-04-15T01:57:03.091Z,3.07
2023-04-15T01:58:03.038Z,3.04
2023-04-15T01:59:03.323Z,3.03
2023-04-15T02:00:03.256Z,3.04
2023-04-15T02:01:02.991Z,3.06
2023-04-15T02:02:02.457Z,3.07
2023-04-15T02:03:02.366Z,3.06
2023-04-15T02:04:02.770Z,3.10
2023-04-15T02:05:02.290Z,3.11
2023-04-15T02:06:02.420Z,3.06
2023-04-15T02:07:03.024Z,3.08
2023-04-15T02:08:03.074Z,3.07
2023-04-15T02:09:02.724Z,3.07
2023-04-15T02:10:03.179Z,3.08
2023-04-15T02:11:02.468Z,3.09
2023-04-15T02:12:02.593Z,3.08
2023-04-15T02:13:02.836Z,3.09
2023-04-15T02:14:02.752Z,3.08
2023-04-15T02:15:02.463Z,3.15
2023-04-15T02:16:02.974Z,3.16
2023-04-15T02:17:02.907Z,3.20
2023-04-15T02:18:03.292Z,3.21
2023-04-15T02:19:03.235Z,3.27
2023-04-15T02:20:02.924Z,3.29
2023-04-15T02:21:03.190Z,3.27
2023-04-15T02:22:02.655Z,3.31
2023-04-15T02:23:02.853Z,3.39
2023-04-15T02:24:02.418Z,3.46
2023-04-15T02:25:02.384Z,3.49
2023-04-15T02:26:02.668Z,3.50
2023-04-15T02:27:03.170Z,3.51
2023-04-15T02:28:02.897Z,3.52
2023-04-15T02:29:03.117Z,3.51
2023-04-15T02:30:03.192Z,3.52
2023-04-15T02:31:02.678Z,3.56
2023-04-15T02:32:03.112Z,3.55
2023-04-15T02:33:03.308Z,3.59
2023-04-15T02:34:03.096Z,3.59
2023-04-15T02:35:03.365Z,3.61
2023-04-15T02:36:03.345Z,3.60
2023-04-15T02:37:02.656Z,3.58
2023-04-15T02:38:02.367Z,3.57
2023-04-15T02:39:03.143Z,3.54
2023-04-15T02:40:02.869Z,3.46
2023-04-15T02:41:02.827Z,3.35
2023-04-15T02:42:03.154Z,3.25
2023-04-15T02:43:02.780Z,3.18
2023-04-15T02:44:02.973Z,3.14
2023-04-15T02:45:02.819Z,3.12
2023-04-15T02:46:03.291Z,3.15
2023-04-15T02:47:02.486Z,3.19
2023-04-15T02:48:02.638Z,3.19
2023-04-15T02:49:02.273Z,3.19
2023-04-15T02:50:02.064Z,3.19
2023-04-15T02:51:02.054Z,3.19
2023-04-15T02:52:02.782Z,3.20
2023-04-15T02:53:03.075Z,3.22
2023-04-15T02:54:02.821Z,3.20
2023-04-15T02:55:03.112Z,3.18
2023-04-15T02:56:03.237Z,3.16
2023-04-15T02:57:02.185Z,3.15
2023-04-15T02:58:02.402Z,3.14
2023-04-15T02:59:02.544Z,3.12
2023-04-15T03:00:02.054Z,3.13
2023-04-15T03:01:02.443Z,3.13
2023-04-15T03:02:02.577Z,3.14
2023-04-15T03:03:02.334Z,3.13
2023-04-15T03:04:02.262Z,3.12
2023-04-15T03:05:02.015Z,3.13
2023-04-15T03:06:02.602Z,3.10
2023-04-15T03:07:02.529Z,3.09
2023-04-15T03:08:02.422Z,3.07
2023-04-15T03:09:02.486Z,3.08
2023-04-15T03:10:02.667Z,3.06
2023-04-15T03:11:02.103Z,3.08
2023-04-15T03:12:03.062Z,3.06
2023-04-15T03:13:02.592Z,3.08
2023-04-15T03:14:02.774Z,3.06
2023-04-15T03:15:02.646Z,3.08
2023-04-15T03:16:02.965Z,3.06
2023-04-15T03:17:02.138Z,3.07
2023-04-15T03:18:02.385Z,3.04
2023-04-15T03:19:02.148Z,3.04
2023-04-15T03:20:01.884Z,3.00
2023-04-15T03:21:02.365Z,2.99
2023-04-15T03:22:02.317Z,3.01
2023-04-15T03:23:02.505Z,3.02
2023-04-15T03:24:02.504Z,2.99
2023-04-15T03:25:01.950Z,2.97
2023-04-15T03:26:01.830Z,2.96
2023-04-15T03:27:02.998Z,2.96
2023-04-15T03:28:02.598Z,2.86
2023-04-15T03:29:03.216Z,2.84
2023-04-15T03:30:02.943Z,2.78
2023-04-15T03:31:02.561Z,2.79
2023-04-15T03:32:02.300Z,2.79
2023-04-15T03:33:02.697Z,2.78
2023-04-15T03:34:02.073Z,2.79
2023-04-15T03:35:02.199Z,2.81
2023-04-15T03:36:02.203Z,2.81
2023-04-15T03:37:02.625Z,2.79
2023-04-15T03:38:02.855Z,2.81
2023-04-15T03:39:03.226Z,2.74
2023-04-15T03:40:02.669Z,2.72
2023-04-15T03:41:02.961Z,2.76
2023-04-15T03:42:02.783Z,2.75
2023-04-15T03:43:02.580Z,2.76
2023-04-15T03:44:02.685Z,2.79
2023-04-15T03:45:02.811Z,2.80
2023-04-15T03:46:02.964Z,2.75
2023-04-15T03:47:02.228Z,2.79
2023-04-15T03:49:02.322Z,2.78
2023-04-15T03:50:02.213Z,2.76
2023-04-15T03:51:01.742Z,2.70
2023-04-15T03:52:02.048Z,2.69
2023-04-15T03:53:02.524Z,2.69
2023-04-15T03:54:02.184Z,2.69
2023-04-15T03:55:02.609Z,2.69
2023-04-15T03:56:02.694Z,2.66
2023-04-15T03:57:02.244Z,2.58
2023-04-15T03:58:02.805Z,2.61
2023-04-15T03:59:02.933Z,2.57
2023-04-15T04:00:02.434Z,2.53
2023-04-15T04:01:02.243Z,2.49
2023-04-15T04:02:02.865Z,2.40
2023-04-15T04:03:03.077Z,2.36
2023-04-15T04:04:02.496Z,2.29
2023-04-15T04:05:02.479Z,2.23
2023-04-15T04:06:02.713Z,2.17
2023-04-15T04:07:02.324Z,2.12
2023-04-15T04:08:02.464Z,2.08
2023-04-15T04:09:02.964Z,2.07
2023-04-15T04:10:02.420Z,2.05
2023-04-15T04:11:02.840Z,2.02
2023-04-15T04:12:02.547Z,1.99
2023-04-15T04:13:02.702Z,1.96
2023-04-15T04:14:02.984Z,1.96
2023-04-15T04:15:02.748Z,1.99
2023-04-15T04:16:02.518Z,1.96
2023-04-15T04:17:03.099Z,1.99
2023-04-15T04:18:02.972Z,2.01
2023-04-15T04:19:03.390Z,2.04
2023-04-15T04:20:03.159Z,2.09
2023-04-15T04:21:03.084Z,2.12
2023-04-15T04:22:03.243Z,2.18
2023-04-15T04:23:03.017Z,2.20
2023-04-15T04:24:02.643Z,2.24
2023-04-15T04:25:02.872Z,2.28
2023-04-15T04:26:02.770Z,2.34
2023-04-15T04:27:02.054Z,2.35
2023-04-15T04:28:02.707Z,2.39
2023-04-15T04:29:02.826Z,2.43
2023-04-15T04:30:02.702Z,2.46
2023-04-15T04:31:02.398Z,2.46
2023-04-15T04:32:02.860Z,2.45
2023-04-15T04:33:03.128Z,2.46
2023-04-15T04:34:02.691Z,2.41
2023-04-15T04:35:03.157Z,2.41
2023-04-15T04:36:02.644Z,2.34
2023-04-15T04:37:02.224Z,2.26
2023-04-15T04:38:02.371Z,2.20
2023-04-15T04:39:02.082Z,2.14
2023-04-15T04:40:02.012Z,2.13
2023-04-15T04:41:02.405Z,2.14
2023-04-15T04:42:02.394Z,2.16
2023-04-15T04:43:02.820Z,2.17
2023-04-15T04:44:02.625Z,2.20
2023-04-15T04:45:02.497Z,2.26
2023-04-15T04:46:02.459Z,2.30
2023-04-15T04:47:02.786Z,2.36
2023-04-15T04:48:03.118Z,2.39
2023-04-15T04:49:03.205Z,2.41
2023-04-15T04:50:03.212Z,2.39
2023-04-15T04:51:03.017Z,2.37
2023-04-15T04:52:02.333Z,2.34
2023-04-15T04:53:02.390Z,2.31
2023-04-15T04:54:03.821Z,2.28
2023-04-15T04:55:02.876Z,2.25
2023-04-15T04:56:02.354Z,2.20
2023-04-15T04:57:02.154Z,2.22
2023-04-15T04:58:02.512Z,2.25
2023-04-15T04:59:02.162Z,2.29
2023-04-15T05:00:01.981Z,2.31
2023-04-15T05:01:01.963Z,2.36
2023-04-15T05:02:03.652Z,2.39
2023-04-15T05:03:03.514Z,2.43
2023-04-15T05:04:03.558Z,2.44
2023-04-15T05:05:03.581Z,2.40
2023-04-15T05:06:03.314Z,2.41
2023-04-15T05:07:02.493Z,2.40
2023-04-15T05:08:02.412Z,2.41
2023-04-15T05:09:03.085Z,2.43
2023-04-15T05:10:02.273Z,2.46
2023-04-15T05:11:02.686Z,2.47
2023-04-15T05:12:02.986Z,2.48
2023-04-15T05:13:03.311Z,2.48
2023-04-15T05:14:02.765Z,2.49
2023-04-15T05:15:03.251Z,2.49
2023-04-15T05:16:03.146Z,2.49
2023-04-15T05:17:02.778Z,2.47
2023-04-15T05:18:02.825Z,2.47
2023-04-15T05:19:02.715Z,2.48
2023-04-15T05:20:02.666Z,2.48
2023-04-15T05:21:02.292Z,2.48
2023-04-15T05:22:02.500Z,2.45
2023-04-15T05:23:02.440Z,2.47
2023-04-15T05:24:02.745Z,2.48
2023-04-15T05:25:02.384Z,2.48
2023-04-15T05:26:02.708Z,2.48
2023-04-15T05:27:03.161Z,2.48
2023-04-15T05:28:02.819Z,2.49
2023-04-15T05:29:03.171Z,2.49
2023-04-15T05:30:03.027Z,2.50
2023-04-15T05:31:03.426Z,2.52
2023-04-15T05:32:02.265Z,2.55
2023-04-15T05:33:02.669Z,2.57
2023-04-15T05:34:02.493Z,2.56
2023-04-15T05:35:02.715Z,2.55
2023-04-15T05:36:02.305Z,2.56
2023-04-15T05:37:02.655Z,2.55
2023-04-15T05:38:02.814Z,2.52
2023-04-15T05:39:02.917Z,2.50
2023-04-15T05:40:02.481Z,2.49
2023-04-15T05:41:02.804Z,2.49
2023-04-15T05:42:03.006Z,2.48
2023-04-15T05:43:02.975Z,2.46
2023-04-15T05:44:02.892Z,2.46
2023-04-15T05:45:02.614Z,2.51
2023-04-15T05:46:03.093Z,2.55
2023-04-15T05:47:02.579Z,2.53
2023-04-15T05:48:02.437Z,2.55
2023-04-15T05:49:02.889Z,2.52
2023-04-15T05:50:02.267Z,2.50
2023-04-15T05:51:02.750Z,2.52
2023-04-15T05:52:02.299Z,2.57
2023-04-15T05:53:02.793Z,2.62
2023-04-15T05:54:02.411Z,2.66
2023-04-15T05:55:02.715Z,2.73
2023-04-15T05:56:02.428Z,2.81
2023-04-15T05:57:03.082Z,2.89
2023-04-15T05:58:03.052Z,2.97
2023-04-15T05:59:03.149Z,3.06
2023-04-15T06:00:03.071Z,3.15
2023-04-15T06:01:02.429Z,3.25
2023-04-15T06:02:02.411Z,3.35
2023-04-15T06:03:02.369Z,3.44
2023-04-15T06:04:02.649Z,3.53
2023-04-15T06:05:02.765Z,3.62
2023-04-15T06:06:02.300Z,3.74
2023-04-15T06:07:03.109Z,3.85
2023-04-15T06:08:03.298Z,3.96
2023-04-15T06:09:03.288Z,4.08
2023-04-15T06:10:03.305Z,4.17
2023-04-15T06:11:02.952Z,4.22
2023-04-15T06:12:02.657Z,4.27
2023-04-15T06:13:02.533Z,4.30
2023-04-15T06:14:02.264Z,4.38
2023-04-15T06:15:02.655Z,4.49
2023-04-15T06:16:02.326Z,4.59
2023-04-15T06:17:03.239Z,4.72
2023-04-15T06:18:03.303Z,4.85
2023-04-15T06:19:03.027Z,4.98
2023-04-15T06:20:02.795Z,5.10
2023-04-15T06:21:03.034Z,5.22
2023-04-15T06:22:02.429Z,5.31
2023-04-15T06:23:02.309Z,5.39
2023-04-15T06:24:01.899Z,5.48
2023-04-15T06:25:02.285Z,5.56
2023-04-15T06:26:02.449Z,5.61
2023-04-15T06:27:02.616Z,5.68
2023-04-15T06:28:02.398Z,5.76
2023-04-15T06:29:02.254Z,5.84
2023-04-15T06:30:01.930Z,5.92
2023-04-15T06:31:02.322Z,6.01
2023-04-15T06:32:02.694Z,6.13
2023-04-15T06:33:03.115Z,6.26
2023-04-15T06:34:02.631Z,6.39
2023-04-15T06:35:02.497Z,6.51
2023-04-15T06:36:02.724Z,6.65
2023-04-15T06:37:02.328Z,6.76
2023-04-15T06:38:01.745Z,6.86
2023-04-15T06:39:02.171Z,6.98
2023-04-15T06:40:02.325Z,7.08
2023-04-15T06:41:02.220Z,7.19
2023-04-15T06:42:02.957Z,7.29
2023-04-15T06:43:02.308Z,7.42
2023-04-15T06:44:02.457Z,7.53
2023-04-15T06:45:02.241Z,7.64
2023-04-15T06:46:02.691Z,7.74
2023-04-15T06:47:02.058Z,7.82
2023-04-15T06:48:02.123Z,7.94
2023-04-15T06:49:02.085Z,8.03
2023-04-15T06:50:02.095Z,8.14
2023-04-15T06:51:01.884Z,8.18
2023-04-15T06:52:02.492Z,8.23
2023-04-15T06:53:02.160Z,8.29
2023-04-15T06:54:02.566Z,8.39
2023-04-15T06:55:02.272Z,8.46
2023-04-15T06:56:02.592Z,8.51
2023-04-15T06:57:02.345Z,8.55
2023-04-15T06:58:02.378Z,8.64
2023-04-15T06:59:02.851Z,8.65
2023-04-15T07:00:02.335Z,8.69
2023-04-15T07:01:02.741Z,8.70
2023-04-15T07:02:02.579Z,8.74
2023-04-15T07:03:02.796Z,8.78
2023-04-15T07:04:02.541Z,8.80
2023-04-15T07:05:02.742Z,8.86
2023-04-15T07:06:03.106Z,8.89
2023-04-15T07:07:02.614Z,8.91
2023-04-15T07:08:02.558Z,8.95
2023-04-15T07:09:03.294Z,9.04
2023-04-15T07:10:03.083Z,9.08
2023-04-15T07:11:02.813Z,9.07
2023-04-15T07:12:02.721Z,9.15
2023-04-15T07:13:02.529Z,9.19
2023-04-15T07:14:02.873Z,9.26
2023-04-15T07:15:02.790Z,9.36
2023-04-15T07:16:02.640Z,9.44
2023-04-15T07:17:02.787Z,9.52
2023-04-15T07:18:03.332Z,9.61
2023-04-15T07:19:03.024Z,9.70
2023-04-15T07:20:02.831Z,9.76
2023-04-15T07:21:02.633Z,9.80
2023-04-15T07:22:02.242Z,9.91
2023-04-15T07:23:02.240Z,10.01
2023-04-15T07:24:02.457Z,10.10
2023-04-15T07:25:02.620Z,10.20
2023-04-15T07:26:02.575Z,10.28
2023-04-15T07:27:02.399Z,10.36
2023-04-15T07:28:02.874Z,10.45
2023-04-15T07:29:02.508Z,10.54
2023-04-15T07:30:02.564Z,10.63
2023-04-15T07:31:02.417Z,10.74
2023-04-15T07:32:02.417Z,10.83
2023-04-15T07:33:02.536Z,10.89
2023-04-15T07:34:02.446Z,11.00
2023-04-15T07:35:02.362Z,11.11
2023-04-15T07:36:02.911Z,11.20
2023-04-15T07:37:03.047Z,11.25
2023-04-15T07:38:03.059Z,11.32
2023-04-15T07:39:03.361Z,11.41
2023-04-15T07:40:02.864Z,11.49
2023-04-15T07:41:03.126Z,11.58
2023-04-15T07:42:02.713Z,11.67
2023-04-15T07:43:02.588Z,11.75
2023-04-15T07:44:02.842Z,11.78
2023-04-15T07:45:02.320Z,11.79
2023-04-15T07:46:02.876Z,11.89
2023-04-15T07:47:02.716Z,11.95
2023-04-15T07:48:02.626Z,11.98
2023-04-15T07:49:02.755Z,11.98
2023-04-15T07:50:02.996Z,11.97
2023-04-15T07:51:02.858Z,11.93
2023-04-15T07:52:02.915Z,11.92
2023-04-15T07:53:03.256Z,11.94
2023-04-15T07:54:03.064Z,11.99
2023-04-15T07:55:02.845Z,12.00
2023-04-15T07:56:02.647Z,11.97
2023-04-15T07:57:03.297Z,12.03
2023-04-15T07:58:03.334Z,12.11
2023-04-15T07:59:03.295Z,12.18
2023-04-15T08:00:03.602Z,12.20
2023-04-15T08:01:03.267Z,12.20
2023-04-15T08:02:03.065Z,12.17
2023-04-15T08:03:03.223Z,12.10
2023-04-15T08:04:02.887Z,12.10
2023-04-15T08:05:02.712Z,12.13
2023-04-15T08:06:03.157Z,12.11
2023-04-15T08:07:03.274Z,12.10
2023-04-15T08:08:03.215Z,12.14
2023-04-15T08:09:03.189Z,12.13
2023-04-15T08:10:02.915Z,12.14
2023-04-15T08:11:03.195Z,12.14
2023-04-15T08:12:03.157Z,12.15
2023-04-15T08:13:02.746Z,12.16
2023-04-15T08:14:02.761Z,12.13
2023-04-15T08:15:02.548Z,12.11
2023-04-15T08:16:03.042Z,12.08
2023-04-15T08:17:03.243Z,12.09
2023-04-15T08:18:03.346Z,12.04
2023-04-15T08:19:03.466Z,12.07
2023-04-15T08:20:03.061Z,12.11
2023-04-15T08:21:03.563Z,12.13
2023-04-15T08:22:02.810Z,12.16
2023-04-15T08:23:02.753Z,12.24
2023-04-15T08:24:02.429Z,12.34
2023-04-15T08:25:02.593Z,12.44
2023-04-15T08:26:03.040Z,12.54
2023-04-15T08:27:03.407Z,12.67
2023-04-15T08:28:03.187Z,12.76
2023-04-15T08:29:03.835Z,12.86
2023-04-15T08:30:05.056Z,12.91
2023-04-15T08:31:03.412Z,13.01
2023-04-15T08:32:03.586Z,13.08
2023-04-15T08:33:03.644Z,13.14
2023-04-15T08:34:03.527Z,13.19
2023-04-15T08:35:03.276Z,13.26
2023-04-15T08:36:03.403Z,13.33
2023-04-15T08:37:02.964Z,13.43
2023-04-15T08:38:02.593Z,13.50
2023-04-15T08:39:03.114Z,13.57
2023-04-15T08:40:02.613Z,13.64
2023-04-15T08:41:02.929Z,13.72
2023-04-15T08:42:03.238Z,13.78
2023-04-15T08:43:02.907Z,13.80
2023-04-15T08:44:03.286Z,13.81
2023-04-15T08:45:03.234Z,13.77
2023-04-15T08:46:03.085Z,13.80
2023-04-15T08:47:03.527Z,13.87
2023-04-15T08:48:03.239Z,13.94
2023-04-15T08:49:03.989Z,14.03
2023-04-15T08:50:03.720Z,14.11
2023-04-15T08:51:03.530Z,14.09
2023-04-15T08:52:02.536Z,14.10
2023-04-15T08:53:02.435Z,14.18
2023-04-15T08:54:02.986Z,14.17
2023-04-15T08:55:02.887Z,14.16
2023-04-15T08:56:02.614Z,14.24
2023-04-15T08:57:02.846Z,14.29
2023-04-15T08:58:02.951Z,14.37
2023-04-15T08:59:02.983Z,14.44
2023-04-15T09:00:03.846Z,14.49
2023-04-15T09:01:02.947Z,14.57
2023-04-15T09:02:02.927Z,14.62
2023-04-15T09:03:02.703Z,14.62
2023-04-15T09:04:02.908Z,14.56
2023-04-15T09:05:02.757Z,14.58
2023-04-15T09:06:02.578Z,14.64
2023-04-15T09:07:02.407Z,14.58
2023-04-15T09:08:02.103Z,14.50
2023-04-15T09:09:02.158Z,14.47
2023-04-15T09:10:01.974Z,14.43
2023-04-15T09:11:02.209Z,14.46
2023-04-15T09:12:02.723Z,14.52
2023-04-15T09:13:02.299Z,14.54
2023-04-15T09:14:02.155Z,14.58
2023-04-15T09:15:02.530Z,14.62
2023-04-15T09:16:02.408Z,14.66
2023-04-15T09:17:02.992Z,14.70
2023-04-15T09:18:02.783Z,14.75
2023-04-15T09:19:02.563Z,14.76
2023-04-15T09:20:02.494Z,14.75
2023-04-15T09:21:02.391Z,14.84
2023-04-15T09:22:03.006Z,14.84
2023-04-15T09:23:02.389Z,14.86
2023-04-15T09:24:03.033Z,14.93
2023-04-15T09:25:02.821Z,15.00
2023-04-15T09:26:02.592Z,15.06
2023-04-15T09:27:01.578Z,15.11
2023-04-15T09:28:01.857Z,15.13
2023-04-15T09:29:01.594Z,15.17
2023-04-15T09:30:02.202Z,15.23
2023-04-15T09:31:02.001Z,15.25
2023-04-15T09:32:01.620Z,15.30
2023-04-15T09:33:02.303Z,15.36
2023-04-15T09:34:02.155Z,15.39
2023-04-15T09:35:01.890Z,15.38
2023-04-15T09:36:01.820Z,15.28
2023-04-15T09:37:03.188Z,15.30
2023-04-15T09:38:02.368Z,15.33
2023-04-15T09:39:02.524Z,15.34
2023-04-15T09:40:02.421Z,15.39
2023-04-15T09:41:02.255Z,15.39
2023-04-15T09:42:01.752Z,15.44
2023-04-15T09:43:01.670Z,15.47
2023-04-15T09:44:01.979Z,15.55
2023-04-15T09:45:01.967Z,15.62
2023-04-15T09:46:01.776Z,15.67
2023-04-15T09:47:02.438Z,15.72
2023-04-15T09:48:02.382Z,15.74
2023-04-15T09:49:02.383Z,15.77
2023-04-15T09:50:02.568Z,15.82
2023-04-15T09:51:02.866Z,15.85
2023-04-15T09:52:05.802Z,15.91
2023-04-15T09:53:02.563Z,15.90
2023-04-15T09:54:02.621Z,15.94
2023-04-15T09:55:02.691Z,15.99
2023-04-15T09:56:02.576Z,16.05
2023-04-15T09:57:02.491Z,16.02
2023-04-15T09:58:03.117Z,15.97
2023-04-15T09:59:02.698Z,16.03
2023-04-15T10:00:02.565Z,16.05
2023-04-15T10:01:02.663Z,16.13
2023-04-15T10:02:03.243Z,16.20
2023-04-15T10:03:03.385Z,16.30
2023-04-15T10:04:04.114Z,16.41
2023-04-15T10:05:03.256Z,16.48
2023-04-15T10:06:03.222Z,16.49
2023-04-15T10:07:02.746Z,16.46
2023-04-15T10:08:03.248Z,16.49
2023-04-15T10:09:02.888Z,16.48
2023-04-15T10:10:03.233Z,16.43
2023-04-15T10:11:02.947Z,16.37
2023-04-15T10:12:02.748Z,16.40
2023-04-15T10:13:02.652Z,16.37
2023-04-15T10:14:02.850Z,16.36
2023-04-15T10:15:02.824Z,16.31
2023-04-15T10:16:02.726Z,16.39
2023-04-15T10:17:03.259Z,16.38
2023-04-15T10:18:03.426Z,16.43
2023-04-15T10:19:03.157Z,16.49
2023-04-15T10:20:03.701Z,16.56
2023-04-15T10:21:03.502Z,16.61
2023-04-15T10:22:03.410Z,16.65
2023-04-15T10:23:03.311Z,16.73
2023-04-15T10:24:04.064Z,16.79
2023-04-15T10:25:03.592Z,16.78
2023-04-15T10:26:03.386Z,16.64
2023-04-15T10:27:03.043Z,16.59
2023-04-15T10:28:03.470Z,16.46
2023-04-15T10:29:03.184Z,16.32
2023-04-15T10:30:03.004Z,16.04
2023-04-15T10:31:02.998Z,15.96
2023-04-15T10:32:03.451Z,15.99
2023-04-15T10:33:03.722Z,15.94
2023-04-15T10:34:04.036Z,15.84
2023-04-15T10:35:03.429Z,15.86
2023-04-15T10:36:03.946Z,15.94
2023-04-15T10:37:03.594Z,15.96
2023-04-15T10:38:03.429Z,15.91
2023-04-15T10:39:03.371Z,15.79
2023-04-15T10:40:03.996Z,15.67
2023-04-15T10:41:03.421Z,15.67
2023-04-15T10:42:02.971Z,15.67
2023-04-15T10:43:02.924Z,15.71
2023-04-15T10:44:03.224Z,15.69
2023-04-15T10:45:03.191Z,15.74
2023-04-15T10:46:03.175Z,15.83
2023-04-15T10:47:02.992Z,15.93
2023-04-15T10:48:03.795Z,15.93
2023-04-15T10:49:03.221Z,15.90
2023-04-15T10:50:03.120Z,15.94
2023-04-15T10:51:03.122Z,15.92
2023-04-15T10:52:03.114Z,15.81
2023-04-15T10:53:02.961Z,15.75
2023-04-15T10:54:03.525Z,15.79
2023-04-15T10:55:03.031Z,15.77
2023-04-15T10:56:02.963Z,15.73
2023-04-15T10:57:03.434Z,15.64
2023-04-15T10:58:03.446Z,15.62
2023-04-15T10:59:03.527Z,15.66
2023-04-15T11:00:03.748Z,15.71
2023-04-15T11:01:03.575Z,15.79
2023-04-15T11:02:02.658Z,15.94
2023-04-15T11:03:02.614Z,16.02
2023-04-15T11:04:03.358Z,16.08
2023-04-15T11:05:02.690Z,16.18
2023-04-15T11:06:02.633Z,16.21
2023-04-15T11:07:02.281Z,16.05
2023-04-15T11:08:02.215Z,15.82
2023-04-15T11:09:02.179Z,15.76
2023-04-15T11:10:02.157Z,15.64
2023-04-15T11:11:02.517Z,15.60
2023-04-15T11:12:02.669Z,15.57
2023-04-15T11:13:02.574Z,15.45
2023-04-15T11:14:02.711Z,15.42
2023-04-15T11:15:02.748Z,15.39
2023-04-15T11:16:02.762Z,15.47
2023-04-15T11:17:02.705Z,15.44
2023-04-15T11:18:02.583Z,15.40
2023-04-15T11:19:02.573Z,15.42
2023-04-15T11:20:02.548Z,15.40
2023-04-15T11:21:03.046Z,15.43
2023-04-15T11:22:02.480Z,15.46
2023-04-15T11:23:14.042Z,15.53
2023-04-15T11:24:02.896Z,15.47
2023-04-15T11:25:02.203Z,15.42
2023-04-15T11:26:02.115Z,15.36
2023-04-15T11:27:02.743Z,15.27
2023-04-15T11:28:03.023Z,15.28
2023-04-15T11:29:02.801Z,15.30
2023-04-15T11:30:02.843Z,15.27
2023-04-15T11:31:02.741Z,15.10
2023-04-15T11:32:02.522Z,14.89
2023-04-15T11:33:02.175Z,14.79
2023-04-15T11:34:02.219Z,14.75
2023-04-15T11:35:02.575Z,14.76
2023-04-15T11:36:02.456Z,14.81
2023-04-15T11:37:03.088Z,14.79
2023-04-15T11:38:03.306Z,14.79
2023-04-15T11:39:02.971Z,14.81
2023-04-15T11:40:02.959Z,14.83
2023-04-15T11:41:02.883Z,14.79
2023-04-15T11:42:02.535Z,14.79
2023-04-15T11:43:02.446Z,14.75
2023-04-15T11:44:02.691Z,14.74
2023-04-15T11:45:02.114Z,14.73
2023-04-15T11:46:02.072Z,14.63
2023-04-15T11:47:02.647Z,14.55
2023-04-15T11:48:02.576Z,14.54
2023-04-15T11:49:02.525Z,14.54
2023-04-15T11:50:02.462Z,14.49
2023-04-15T11:51:02.432Z,14.49
2023-04-15T11:52:03.018Z,14.51
2023-04-15T11:53:02.522Z,14.53
2023-04-15T11:54:03.436Z,14.55
2023-04-15T11:55:03.180Z,14.56
2023-04-15T11:56:02.890Z,14.59
2023-04-15T11:57:02.559Z,14.62
2023-04-15T11:58:02.382Z,14.63
2023-04-15T11:59:02.365Z,14.57
2023-04-15T12:00:02.043Z,14.54
2023-04-15T12:01:02.596Z,14.55
2023-04-15T12:02:03.111Z,14.49
2023-04-15T12:03:02.762Z,14.51
2023-04-15T12:04:03.097Z,14.45
2023-04-15T12:05:03.023Z,14.40
2023-04-15T12:06:02.846Z,14.37
2023-04-15T12:07:02.480Z,14.31
2023-04-15T12:08:02.285Z,14.22
2023-04-15T12:09:02.100Z,14.15
2023-04-15T12:10:02.535Z,14.03
2023-04-15T12:11:02.437Z,13.86
2023-04-15T12:12:02.758Z,13.64
2023-04-15T12:13:02.435Z,13.44
2023-04-15T12:14:02.619Z,13.27
2023-04-15T12:15:02.613Z,13.22
2023-04-15T12:16:02.763Z,13.20
2023-04-15T12:17:03.251Z,13.20
2023-04-15T12:18:02.840Z,13.12
2023-04-15T12:19:02.627Z,13.08
2023-04-15T12:20:03.180Z,12.99
2023-04-15T12:21:03.071Z,12.98
2023-04-15T12:22:02.011Z,12.86
2023-04-15T12:23:02.634Z,12.88
2023-04-15T12:24:02.449Z,12.74
2023-04-15T12:25:02.041Z,12.75
2023-04-15T12:26:02.639Z,12.70
2023-04-15T12:27:02.162Z,12.66
2023-04-15T12:28:02.758Z,12.68
2023-04-15T12:29:02.304Z,12.60
2023-04-15T12:30:02.815Z,12.52
2023-04-15T12:31:02.458Z,12.52
2023-04-15T12:32:02.408Z,12.50
2023-04-15T12:33:02.979Z,12.48
2023-04-15T12:34:02.831Z,12.53
2023-04-15T12:35:03.029Z,12.61
2023-04-15T12:36:03.078Z,12.68
2023-04-15T12:37:02.748Z,12.75
2023-04-15T12:38:03.245Z,12.73
2023-04-15T12:39:03.055Z,12.66
2023-04-15T12:40:02.989Z,12.71
2023-04-15T12:41:03.258Z,12.75
2023-04-15T12:42:03.140Z,12.80
2023-04-15T12:43:02.773Z,12.81
2023-04-15T12:44:02.612Z,12.80
2023-04-15T12:45:02.366Z,12.79
2023-04-15T12:46:02.276Z,12.81
2023-04-15T12:47:02.941Z,12.81
2023-04-15T12:48:02.383Z,12.80
2023-04-15T12:49:02.161Z,12.86
2023-04-15T12:50:02.573Z,12.91
2023-04-15T12:51:03.933Z,12.95
2023-04-15T12:52:02.087Z,12.98
2023-04-15T12:53:02.673Z,12.99
2023-04-15T12:54:02.889Z,12.99
2023-04-15T12:55:02.902Z,12.96
2023-04-15T12:56:02.761Z,12.94
2023-04-15T12:57:05.973Z,12.92
2023-04-15T12:58:03.000Z,12.87
2023-04-15T12:59:03.343Z,12.77
2023-04-15T13:00:02.978Z,12.74
2023-04-15T13:01:02.841Z,12.74
2023-04-15T13:02:03.448Z,12.77
2023-04-15T13:03:03.442Z,12.72
2023-04-15T13:04:02.177Z,12.66
2023-04-15T13:05:02.485Z,12.61
2023-04-15T13:06:02.344Z,12.58
2023-04-15T13:07:02.584Z,12.55